SAA3701 FIMP-FAOR
Flight info
| Callsign | SAA3701 |
|---|---|
| Flight time | N/A |
| Altitude | 38000 |
| Route | FIMP/14 N0459F380 SOBAT1 SOBAT UA401 SDG UG653 SUNIR UT444 ETIVI DCT APDOB DCT 250214S0313313E DCT UNPAX DCT OKPIT OKPI4A FAOR/03L |
| Aircraft | A20N/M-VGDW/C |
Departure
| Time | 2026-05-07 04:22 |
|---|---|
| Airport | Sir Seewoosagur Ramgoolam International Airport (FIMP) |
Arrival
| Time | N/A |
|---|---|
| Airport | O.R. Tambo International Airport (FAOR) |
| Time | Latitude | Longitude | Altitude | Speed | Heading |
|---|---|---|---|---|---|
| 2026-05-07 03:48 | -20.43132 | 57.67764 | 163 ft | 0 kts | 208° |
| 2026-05-07 04:12 | -20.43126 | 57.67768 | 163 ft | 1 kts | 208° |
| 2026-05-07 04:12 | -20.43119 | 57.67772 | 163 ft | 1 kts | 208° |
| 2026-05-07 04:12 | -20.43112 | 57.67776 | 163 ft | 1 kts | 208° |
| 2026-05-07 04:13 | -20.43105 | 57.67780 | 163 ft | 1 kts | 208° |
| 2026-05-07 04:13 | -20.43098 | 57.67784 | 163 ft | 1 kts | 208° |
| 2026-05-07 04:13 | -20.43092 | 57.67788 | 163 ft | 1 kts | 208° |
| 2026-05-07 04:13 | -20.43085 | 57.67792 | 163 ft | 1 kts | 215° |
| 2026-05-07 04:14 | -20.43078 | 57.67797 | 163 ft | 1 kts | 223° |
| 2026-05-07 04:14 | -20.43073 | 57.67802 | 163 ft | 1 kts | 229° |
| 2026-05-07 04:14 | -20.43068 | 57.67809 | 162 ft | 1 kts | 239° |
| 2026-05-07 04:14 | -20.43064 | 57.67816 | 162 ft | 1 kts | 249° |
| 2026-05-07 04:15 | -20.43061 | 57.67824 | 162 ft | 1 kts | 259° |
| 2026-05-07 04:15 | -20.43060 | 57.67832 | 162 ft | 1 kts | 270° |
| 2026-05-07 04:15 | -20.43060 | 57.67843 | 162 ft | 1 kts | 279° |
| 2026-05-07 04:15 | -20.43062 | 57.67853 | 161 ft | 1 kts | 288° |
| 2026-05-07 04:16 | -20.43063 | 57.67857 | 161 ft | 0 kts | 292° |
| 2026-05-07 04:17 | -20.43060 | 57.67852 | 162 ft | 3 kts | 302° |
| 2026-05-07 04:17 | -20.43037 | 57.67805 | 163 ft | 11 kts | 297° |
| 2026-05-07 04:17 | -20.43012 | 57.67755 | 165 ft | 7 kts | 297° |
| 2026-05-07 04:17 | -20.42977 | 57.67680 | 167 ft | 14 kts | 296° |
| 2026-05-07 04:18 | -20.42895 | 57.67615 | 170 ft | 12 kts | 328° |
| 2026-05-07 04:18 | -20.42822 | 57.67565 | 172 ft | 12 kts | 319° |
| 2026-05-07 04:18 | -20.42765 | 57.67517 | 174 ft | 9 kts | 319° |
| 2026-05-07 04:18 | -20.42713 | 57.67482 | 177 ft | 9 kts | 334° |
| 2026-05-07 04:19 | -20.42658 | 57.67463 | 179 ft | 8 kts | 342° |
| 2026-05-07 04:19 | -20.42604 | 57.67443 | 180 ft | 9 kts | 338° |
| 2026-05-07 04:19 | -20.42563 | 57.67399 | 182 ft | 8 kts | 303° |
| 2026-05-07 04:19 | -20.42534 | 57.67343 | 183 ft | 9 kts | 297° |
| 2026-05-07 04:20 | -20.42511 | 57.67296 | 195 ft | 6 kts | 299° |
| 2026-05-07 04:20 | -20.42484 | 57.67264 | 191 ft | 6 kts | 315° |
| 2026-05-07 04:20 | -20.42466 | 57.67228 | 200 ft | 5 kts | 269° |
| 2026-05-07 04:21 | -20.42487 | 57.67221 | 196 ft | 3 kts | 110° |
| 2026-05-07 04:21 | -20.42496 | 57.67256 | 186 ft | 7 kts | 120° |
| 2026-05-07 04:21 | -20.42537 | 57.67344 | 183 ft | 36 kts | 117° |
| 2026-05-07 04:21 | -20.42787 | 57.67862 | 165 ft | 117 kts | 117° |
| 2026-05-07 04:22 | -20.43262 | 57.68848 | 157 ft | 177 kts | 117° |
| 2026-05-07 04:22 | -20.43830 | 57.70007 | 931 ft | 175 kts | 117° |
| 2026-05-07 04:22 | -20.44378 | 57.71132 | 2006 ft | 167 kts | 116° |
| 2026-05-07 04:22 | -20.44909 | 57.72259 | 2652 ft | 180 kts | 116° |
| 2026-05-07 04:23 | -20.45573 | 57.73464 | 3143 ft | 196 kts | 130° |
| 2026-05-07 04:23 | -20.46715 | 57.74310 | 3783 ft | 206 kts | 160° |
| 2026-05-07 04:23 | -20.48143 | 57.74408 | 4551 ft | 211 kts | 192° |
| 2026-05-07 04:23 | -20.49514 | 57.73809 | 5305 ft | 214 kts | 202° |
| 2026-05-07 04:24 | -20.50870 | 57.73128 | 6068 ft | 217 kts | 204° |
| 2026-05-07 04:24 | -20.52258 | 57.72435 | 6783 ft | 219 kts | 204° |
| 2026-05-07 04:24 | -20.53629 | 57.71702 | 7466 ft | 223 kts | 215° |
| 2026-05-07 04:24 | -20.54618 | 57.70413 | 8079 ft | 231 kts | 247° |
| 2026-05-07 04:25 | -20.54832 | 57.68736 | 8671 ft | 237 kts | 279° |
| 2026-05-07 04:25 | -20.54335 | 57.66992 | 9169 ft | 251 kts | 291° |
| 2026-05-07 04:25 | -20.53649 | 57.65219 | 9403 ft | 274 kts | 293° |
| 2026-05-07 04:25 | -20.52879 | 57.63273 | 9740 ft | 295 kts | 292° |
| 2026-05-07 04:26 | -20.52088 | 57.61195 | 10272 ft | 304 kts | 291° |
| 2026-05-07 04:26 | -20.51289 | 57.59019 | 10546 ft | 325 kts | 290° |
| 2026-05-07 04:26 | -20.50459 | 57.56705 | 10768 ft | 345 kts | 290° |
| 2026-05-07 04:26 | -20.49596 | 57.54275 | 11298 ft | 353 kts | 290° |
| 2026-05-07 04:27 | -20.48720 | 57.51807 | 11869 ft | 359 kts | 290° |
| 2026-05-07 04:27 | -20.47832 | 57.49307 | 12562 ft | 363 kts | 289° |
| 2026-05-07 04:27 | -20.47095 | 57.46758 | 13163 ft | 365 kts | 278° |
| 2026-05-07 04:27 | -20.46930 | 57.44070 | 13887 ft | 364 kts | 265° |
| 2026-05-07 04:28 | -20.47348 | 57.41410 | 14429 ft | 366 kts | 255° |
| 2026-05-07 04:28 | -20.47939 | 57.38753 | 14993 ft | 369 kts | 255° |
| 2026-05-07 04:28 | -20.48529 | 57.36059 | 15513 ft | 374 kts | 255° |
| 2026-05-07 04:28 | -20.49121 | 57.33344 | 16086 ft | 377 kts | 255° |
| 2026-05-07 04:29 | -20.49714 | 57.30608 | 16639 ft | 380 kts | 255° |
| 2026-05-07 04:29 | -20.50303 | 57.27872 | 17159 ft | 384 kts | 255° |
| 2026-05-07 04:29 | -20.50903 | 57.25092 | 17695 ft | 386 kts | 256° |
| 2026-05-07 04:29 | -20.51510 | 57.22280 | 18236 ft | 389 kts | 256° |
| 2026-05-07 04:30 | -20.52119 | 57.19450 | 18694 ft | 393 kts | 255° |
| 2026-05-07 04:30 | -20.52736 | 57.16581 | 19109 ft | 397 kts | 255° |
| 2026-05-07 04:30 | -20.53349 | 57.13733 | 19578 ft | 399 kts | 256° |
| 2026-05-07 04:30 | -20.53970 | 57.10843 | 20023 ft | 402 kts | 256° |
| 2026-05-07 04:31 | -20.54602 | 57.07898 | 20430 ft | 406 kts | 256° |
| 2026-05-07 04:31 | -20.55235 | 57.04939 | 20868 ft | 409 kts | 256° |
| 2026-05-07 04:31 | -20.55869 | 57.01983 | 21383 ft | 410 kts | 256° |
| 2026-05-07 04:31 | -20.56508 | 56.98997 | 21809 ft | 414 kts | 256° |
| 2026-05-07 04:32 | -20.57144 | 56.96022 | 22186 ft | 417 kts | 256° |
| 2026-05-07 04:32 | -20.57789 | 56.93004 | 22636 ft | 419 kts | 256° |
| 2026-05-07 04:32 | -20.58442 | 56.89944 | 23092 ft | 421 kts | 257° |
| 2026-05-07 04:32 | -20.59096 | 56.86873 | 23450 ft | 426 kts | 257° |
| 2026-05-07 04:33 | -20.59757 | 56.83769 | 23778 ft | 430 kts | 257° |
| 2026-05-07 04:33 | -20.60417 | 56.80663 | 24220 ft | 429 kts | 256° |
| 2026-05-07 04:33 | -20.61068 | 56.77596 | 24577 ft | 431 kts | 256° |
| 2026-05-07 04:33 | -20.61732 | 56.74464 | 24906 ft | 434 kts | 256° |
| 2026-05-07 04:34 | -20.62397 | 56.71332 | 25269 ft | 434 kts | 256° |
| 2026-05-07 04:34 | -20.63068 | 56.68162 | 25637 ft | 435 kts | 256° |
| 2026-05-07 04:34 | -20.63739 | 56.64990 | 25947 ft | 438 kts | 255° |
| 2026-05-07 04:34 | -20.64410 | 56.61816 | 26282 ft | 439 kts | 255° |
| 2026-05-07 04:35 | -20.65085 | 56.58627 | 26600 ft | 441 kts | 255° |
| 2026-05-07 04:35 | -20.65759 | 56.55427 | 26898 ft | 443 kts | 255° |
| 2026-05-07 04:35 | -20.66437 | 56.52206 | 27212 ft | 444 kts | 255° |
| 2026-05-07 04:35 | -20.67115 | 56.48991 | 27501 ft | 446 kts | 256° |
| 2026-05-07 04:36 | -20.67788 | 56.45794 | 27789 ft | 448 kts | 255° |
| 2026-05-07 04:36 | -20.68472 | 56.42538 | 28067 ft | 449 kts | 255° |
| 2026-05-07 04:36 | -20.69158 | 56.39273 | 28382 ft | 450 kts | 256° |
| 2026-05-07 04:36 | -20.69845 | 56.36001 | 28681 ft | 451 kts | 256° |
| 2026-05-07 04:37 | -20.70534 | 56.32714 | 28932 ft | 453 kts | 256° |
| 2026-05-07 04:37 | -20.71222 | 56.29426 | 29190 ft | 455 kts | 255° |
| 2026-05-07 04:37 | -20.71906 | 56.26161 | 29478 ft | 455 kts | 255° |
| 2026-05-07 04:37 | -20.72619 | 56.22858 | 29720 ft | 457 kts | 255° |
| 2026-05-07 04:38 | -20.73361 | 56.19547 | 29974 ft | 459 kts | 254° |
| 2026-05-07 04:38 | -20.74108 | 56.16230 | 30217 ft | 460 kts | 254° |
| 2026-05-07 04:38 | -20.74856 | 56.12894 | 30447 ft | 461 kts | 255° |
| 2026-05-07 04:38 | -20.75599 | 56.09563 | 30688 ft | 462 kts | 255° |
| 2026-05-07 04:39 | -20.76344 | 56.06209 | 30921 ft | 463 kts | 255° |
| 2026-05-07 04:39 | -20.77087 | 56.02857 | 31166 ft | 464 kts | 255° |
| 2026-05-07 04:39 | -20.77828 | 55.99507 | 31471 ft | 463 kts | 255° |
| 2026-05-07 04:39 | -20.78558 | 55.96205 | 31789 ft | 461 kts | 255° |
| 2026-05-07 04:40 | -20.79294 | 55.92870 | 32122 ft | 460 kts | 255° |
| 2026-05-07 04:40 | -20.80031 | 55.89529 | 32449 ft | 458 kts | 255° |
| 2026-05-07 04:40 | -20.80758 | 55.86229 | 32749 ft | 457 kts | 255° |
| 2026-05-07 04:40 | -20.81489 | 55.82908 | 33050 ft | 455 kts | 255° |
| 2026-05-07 04:41 | -20.82213 | 55.79618 | 33358 ft | 454 kts | 255° |
| 2026-05-07 04:41 | -20.82923 | 55.76388 | 33627 ft | 452 kts | 255° |
| 2026-05-07 04:41 | -20.83643 | 55.73113 | 33908 ft | 451 kts | 255° |
| 2026-05-07 04:41 | -20.84360 | 55.69846 | 34159 ft | 450 kts | 255° |
| 2026-05-07 04:42 | -20.85073 | 55.66594 | 34371 ft | 449 kts | 255° |
| 2026-05-07 04:42 | -20.85778 | 55.63373 | 34561 ft | 449 kts | 255° |
| 2026-05-07 04:42 | -20.86491 | 55.60114 | 34758 ft | 448 kts | 255° |
| 2026-05-07 04:42 | -20.87205 | 55.56852 | 34945 ft | 448 kts | 255° |
| 2026-05-07 04:43 | -20.87914 | 55.53605 | 35128 ft | 447 kts | 255° |
| 2026-05-07 04:43 | -20.88611 | 55.50411 | 35301 ft | 447 kts | 255° |
| 2026-05-07 04:43 | -20.89378 | 55.47178 | 35485 ft | 446 kts | 253° |
| 2026-05-07 04:43 | -20.90199 | 55.43971 | 35661 ft | 446 kts | 253° |
| 2026-05-07 04:44 | -20.91026 | 55.40777 | 35848 ft | 445 kts | 253° |
| 2026-05-07 04:44 | -20.91847 | 55.37587 | 36014 ft | 445 kts | 253° |
| 2026-05-07 04:44 | -20.92649 | 55.34436 | 36180 ft | 444 kts | 253° |
| 2026-05-07 04:44 | -20.93458 | 55.31229 | 36354 ft | 444 kts | 254° |
| 2026-05-07 04:45 | -20.94262 | 55.28033 | 36520 ft | 443 kts | 254° |
| 2026-05-07 04:45 | -20.95052 | 55.24881 | 36701 ft | 443 kts | 254° |
| 2026-05-07 04:45 | -20.95852 | 55.21686 | 36863 ft | 442 kts | 254° |
| 2026-05-07 04:45 | -20.96650 | 55.18496 | 37049 ft | 441 kts | 254° |
| 2026-05-07 04:46 | -20.97442 | 55.15328 | 37247 ft | 440 kts | 254° |
| 2026-05-07 04:46 | -20.98235 | 55.12155 | 37399 ft | 440 kts | 254° |
| 2026-05-07 04:46 | -20.99014 | 55.09032 | 37531 ft | 439 kts | 254° |
| 2026-05-07 04:46 | -20.99804 | 55.05865 | 37666 ft | 439 kts | 254° |
| 2026-05-07 04:47 | -21.00590 | 55.02712 | 37797 ft | 439 kts | 254° |
| 2026-05-07 04:47 | -21.01375 | 54.99559 | 37923 ft | 439 kts | 254° |
| 2026-05-07 04:47 | -21.02162 | 54.96396 | 38043 ft | 438 kts | 254° |
| 2026-05-07 04:47 | -21.02947 | 54.93238 | 38072 ft | 438 kts | 254° |
| 2026-05-07 04:48 | -21.04504 | 54.86964 | 38076 ft | 437 kts | 254° |
| 2026-05-07 04:48 | -21.06068 | 54.80655 | 38068 ft | 438 kts | 254° |
| 2026-05-07 04:49 | -21.07620 | 54.74379 | 38079 ft | 437 kts | 254° |
| 2026-05-07 04:49 | -21.09174 | 54.68087 | 38074 ft | 437 kts | 254° |
| 2026-05-07 04:50 | -21.10731 | 54.61776 | 38078 ft | 437 kts | 254° |
| 2026-05-07 04:50 | -21.12277 | 54.55495 | 38086 ft | 436 kts | 254° |
| 2026-05-07 04:51 | -21.13811 | 54.49250 | 38083 ft | 436 kts | 254° |
| 2026-05-07 04:51 | -21.15096 | 54.44015 | 38074 ft | 436 kts | 254° |
| 2026-05-07 04:52 | -21.16636 | 54.37729 | 38072 ft | 435 kts | 254° |
| 2026-05-07 04:52 | -21.18421 | 54.30426 | 38066 ft | 435 kts | 255° |
| 2026-05-07 04:53 | -21.19697 | 54.25199 | 38073 ft | 435 kts | 255° |
| 2026-05-07 04:53 | -21.21226 | 54.18923 | 38069 ft | 435 kts | 255° |
| 2026-05-07 04:54 | -21.22755 | 54.12642 | 38063 ft | 435 kts | 255° |
| 2026-05-07 04:54 | -21.24273 | 54.06388 | 38085 ft | 435 kts | 255° |
| 2026-05-07 04:55 | -21.25798 | 54.00098 | 38089 ft | 435 kts | 255° |
| 2026-05-07 04:55 | -21.27311 | 53.93848 | 38089 ft | 434 kts | 255° |
| 2026-05-07 04:56 | -21.28825 | 53.87581 | 38084 ft | 434 kts | 255° |
| 2026-05-07 04:56 | -21.30332 | 53.81334 | 38088 ft | 434 kts | 255° |
| 2026-05-07 04:57 | -21.31844 | 53.75052 | 38096 ft | 434 kts | 255° |
| 2026-05-07 04:57 | -21.33350 | 53.68792 | 38079 ft | 433 kts | 255° |
| 2026-05-07 04:58 | -21.34841 | 53.62574 | 38085 ft | 432 kts | 255° |
| 2026-05-07 04:58 | -21.36342 | 53.56306 | 38079 ft | 432 kts | 255° |
| 2026-05-07 04:59 | -21.37837 | 53.50053 | 38093 ft | 432 kts | 255° |
| 2026-05-07 04:59 | -21.39322 | 53.43830 | 38084 ft | 432 kts | 255° |
| 2026-05-07 05:00 | -21.40811 | 53.37580 | 38094 ft | 431 kts | 255° |
| 2026-05-07 05:00 | -21.42289 | 53.31368 | 38088 ft | 431 kts | 255° |
| 2026-05-07 05:01 | -21.43772 | 53.25122 | 38088 ft | 431 kts | 255° |
| 2026-05-07 05:01 | -21.45241 | 53.18924 | 38073 ft | 431 kts | 255° |
| 2026-05-07 05:02 | -21.46717 | 53.12684 | 38087 ft | 430 kts | 255° |
| 2026-05-07 05:02 | -21.48190 | 53.06446 | 38073 ft | 430 kts | 255° |
| 2026-05-07 05:03 | -21.49654 | 53.00238 | 38074 ft | 430 kts | 255° |
| 2026-05-07 05:03 | -21.51124 | 52.94000 | 38087 ft | 430 kts | 255° |
| 2026-05-07 05:04 | -21.52580 | 52.87799 | 38092 ft | 430 kts | 256° |
| 2026-05-07 05:04 | -21.54041 | 52.81560 | 38091 ft | 430 kts | 256° |
| 2026-05-07 05:05 | -21.55503 | 52.75316 | 38084 ft | 430 kts | 256° |
| 2026-05-07 05:05 | -21.56951 | 52.69119 | 38090 ft | 430 kts | 256° |
| 2026-05-07 05:06 | -21.58406 | 52.62880 | 38093 ft | 430 kts | 256° |
| 2026-05-07 05:06 | -21.59857 | 52.56646 | 38085 ft | 430 kts | 256° |
| 2026-05-07 05:07 | -21.61298 | 52.50449 | 38081 ft | 429 kts | 256° |
| 2026-05-07 05:07 | -21.62744 | 52.44215 | 38097 ft | 429 kts | 256° |
| 2026-05-07 05:08 | -21.64183 | 52.38000 | 38096 ft | 429 kts | 256° |
| 2026-05-07 05:08 | -21.65625 | 52.31760 | 38095 ft | 429 kts | 256° |
| 2026-05-07 05:09 | -21.67067 | 52.25513 | 38095 ft | 429 kts | 256° |
| 2026-05-07 05:09 | -21.68501 | 52.19285 | 38094 ft | 429 kts | 256° |
| 2026-05-07 05:10 | -21.69927 | 52.13084 | 38091 ft | 429 kts | 256° |
| 2026-05-07 05:10 | -21.71357 | 52.06850 | 38084 ft | 429 kts | 256° |
| 2026-05-07 05:11 | -21.72776 | 52.00654 | 38094 ft | 428 kts | 256° |
| 2026-05-07 05:11 | -21.74204 | 51.94410 | 38089 ft | 428 kts | 256° |
| 2026-05-07 05:12 | -21.75626 | 51.88181 | 38095 ft | 428 kts | 256° |
| 2026-05-07 05:12 | -21.77036 | 51.81989 | 38096 ft | 428 kts | 256° |
| 2026-05-07 05:13 | -21.78453 | 51.75757 | 38088 ft | 428 kts | 256° |
| 2026-05-07 05:13 | -21.79862 | 51.69550 | 38096 ft | 428 kts | 256° |
| 2026-05-07 05:14 | -21.81275 | 51.63311 | 38090 ft | 428 kts | 256° |
| 2026-05-07 05:14 | -21.82678 | 51.57110 | 38090 ft | 428 kts | 256° |
| 2026-05-07 05:15 | -21.84087 | 51.50868 | 38088 ft | 428 kts | 256° |
| 2026-05-07 05:15 | -21.85477 | 51.44683 | 38088 ft | 428 kts | 257° |
| 2026-05-07 05:16 | -21.86876 | 51.38447 | 38087 ft | 428 kts | 257° |
| 2026-05-07 05:16 | -21.88268 | 51.32247 | 38094 ft | 428 kts | 257° |
| 2026-05-07 05:17 | -21.89668 | 51.26000 | 38098 ft | 427 kts | 257° |
| 2026-05-07 05:17 | -21.91058 | 51.19778 | 38091 ft | 427 kts | 257° |
| 2026-05-07 05:18 | -21.92441 | 51.13577 | 38092 ft | 427 kts | 257° |
| 2026-05-07 05:18 | -21.93829 | 51.07338 | 38093 ft | 427 kts | 257° |
| 2026-05-07 05:19 | -21.95205 | 51.01144 | 38096 ft | 427 kts | 257° |
| 2026-05-07 05:19 | -21.96589 | 50.94902 | 38088 ft | 427 kts | 257° |
| 2026-05-07 05:20 | -21.97967 | 50.88675 | 38092 ft | 427 kts | 257° |
| 2026-05-07 05:20 | -21.99339 | 50.82464 | 38093 ft | 427 kts | 257° |
| 2026-05-07 05:21 | -22.01401 | 50.73108 | 38099 ft | 427 kts | 257° |
| 2026-05-07 05:22 | -22.02760 | 50.66924 | 38089 ft | 427 kts | 257° |
| 2026-05-07 05:22 | -22.04129 | 50.60684 | 38089 ft | 426 kts | 257° |
| 2026-05-07 05:23 | -22.05491 | 50.54468 | 38088 ft | 426 kts | 257° |
| 2026-05-07 05:23 | -22.06851 | 50.48242 | 38081 ft | 426 kts | 257° |
| 2026-05-07 05:24 | -22.08203 | 50.42044 | 38083 ft | 426 kts | 257° |
| 2026-05-07 05:24 | -22.09561 | 50.35811 | 38095 ft | 426 kts | 257° |
| 2026-05-07 05:25 | -22.10913 | 50.29587 | 38085 ft | 426 kts | 257° |
| 2026-05-07 05:25 | -22.12261 | 50.23373 | 38095 ft | 426 kts | 257° |
| 2026-05-07 05:26 | -22.13610 | 50.17144 | 38086 ft | 426 kts | 257° |
| 2026-05-07 05:26 | -22.14948 | 50.10950 | 38091 ft | 426 kts | 257° |
| 2026-05-07 05:27 | -22.16293 | 50.04713 | 38079 ft | 426 kts | 257° |
| 2026-05-07 05:27 | -22.17636 | 49.98472 | 38082 ft | 426 kts | 257° |
| 2026-05-07 05:28 | -22.18969 | 49.92267 | 38085 ft | 426 kts | 257° |
| 2026-05-07 05:28 | -22.20307 | 49.86026 | 38088 ft | 426 kts | 257° |
| 2026-05-07 05:29 | -22.21638 | 49.79805 | 38085 ft | 427 kts | 257° |
| 2026-05-07 05:29 | -22.22974 | 49.73548 | 38082 ft | 427 kts | 257° |
| 2026-05-07 05:30 | -22.24308 | 49.67289 | 38092 ft | 427 kts | 257° |
| 2026-05-07 05:30 | -22.25629 | 49.61074 | 38092 ft | 427 kts | 257° |
| 2026-05-07 05:31 | -22.26956 | 49.54824 | 38097 ft | 427 kts | 258° |
| 2026-05-07 05:31 | -22.28281 | 49.48572 | 38093 ft | 427 kts | 258° |
| 2026-05-07 05:32 | -22.29596 | 49.42349 | 38083 ft | 427 kts | 258° |
| 2026-05-07 05:32 | -22.30918 | 49.36084 | 38088 ft | 427 kts | 258° |
| 2026-05-07 05:33 | -22.32235 | 49.29831 | 38091 ft | 427 kts | 258° |
| 2026-05-07 05:33 | -22.33544 | 49.23602 | 38085 ft | 427 kts | 258° |
| 2026-05-07 05:34 | -22.34856 | 49.17344 | 38085 ft | 427 kts | 258° |
| 2026-05-07 05:34 | -22.36159 | 49.11118 | 38087 ft | 426 kts | 258° |
| 2026-05-07 05:35 | -22.37468 | 49.04856 | 38090 ft | 426 kts | 258° |
| 2026-05-07 05:35 | -22.38772 | 48.98597 | 38082 ft | 426 kts | 258° |
| 2026-05-07 05:36 | -22.40067 | 48.92374 | 38089 ft | 426 kts | 258° |
| 2026-05-07 05:36 | -22.41370 | 48.86099 | 38091 ft | 427 kts | 258° |
| 2026-05-07 05:37 | -22.42669 | 48.79827 | 38091 ft | 426 kts | 258° |
| 2026-05-07 05:37 | -22.43955 | 48.73608 | 38087 ft | 426 kts | 258° |
| 2026-05-07 05:38 | -22.45247 | 48.67346 | 38086 ft | 426 kts | 258° |
| 2026-05-07 05:38 | -22.46530 | 48.61118 | 38090 ft | 426 kts | 258° |
| 2026-05-07 05:39 | -22.47815 | 48.54863 | 38084 ft | 426 kts | 258° |
| 2026-05-07 05:39 | -22.49099 | 48.48603 | 38089 ft | 426 kts | 258° |
| 2026-05-07 05:40 | -22.50372 | 48.42382 | 38084 ft | 425 kts | 258° |
| 2026-05-07 05:40 | -22.51650 | 48.36125 | 38086 ft | 425 kts | 258° |
| 2026-05-07 05:41 | -22.52708 | 48.30934 | 38077 ft | 425 kts | 258° |
| 2026-05-07 05:41 | -22.53982 | 48.24672 | 38084 ft | 425 kts | 259° |
| 2026-05-07 05:42 | -22.55245 | 48.18451 | 38081 ft | 425 kts | 259° |
| 2026-05-07 05:42 | -22.56516 | 48.12180 | 38077 ft | 425 kts | 259° |
| 2026-05-07 05:43 | -22.57780 | 48.05938 | 38084 ft | 425 kts | 259° |
| 2026-05-07 05:43 | -22.59038 | 47.99714 | 38076 ft | 425 kts | 259° |
| 2026-05-07 05:44 | -22.60290 | 47.93475 | 38084 ft | 425 kts | 259° |
| 2026-05-07 05:44 | -22.61548 | 47.87203 | 38093 ft | 425 kts | 259° |
| 2026-05-07 05:45 | -22.62807 | 47.80941 | 38102 ft | 425 kts | 259° |
| 2026-05-07 05:45 | -22.64058 | 47.74709 | 38104 ft | 425 kts | 259° |
| 2026-05-07 05:46 | -22.65314 | 47.68435 | 38093 ft | 425 kts | 259° |
| 2026-05-07 05:46 | -22.66559 | 47.62197 | 38094 ft | 425 kts | 259° |
| 2026-05-07 05:47 | -22.67808 | 47.55922 | 38099 ft | 425 kts | 259° |
| 2026-05-07 05:47 | -22.69052 | 47.49659 | 38115 ft | 425 kts | 259° |
| 2026-05-07 05:48 | -22.70288 | 47.43427 | 38115 ft | 425 kts | 259° |
| 2026-05-07 05:48 | -22.71526 | 47.37170 | 38109 ft | 425 kts | 259° |
| 2026-05-07 05:49 | -22.72764 | 47.30896 | 38102 ft | 424 kts | 259° |
| 2026-05-07 05:49 | -22.73996 | 47.24639 | 38120 ft | 424 kts | 259° |
| 2026-05-07 05:50 | -22.75220 | 47.18414 | 38110 ft | 424 kts | 259° |
| 2026-05-07 05:50 | -22.76447 | 47.12157 | 38104 ft | 424 kts | 259° |
| 2026-05-07 05:51 | -22.77671 | 47.05902 | 38117 ft | 424 kts | 259° |
| 2026-05-07 05:51 | -22.78886 | 46.99679 | 38134 ft | 424 kts | 259° |
| 2026-05-07 05:52 | -22.80104 | 46.93428 | 38108 ft | 424 kts | 259° |
| 2026-05-07 05:52 | -22.81324 | 46.87155 | 38121 ft | 424 kts | 259° |
| 2026-05-07 05:53 | -22.82542 | 46.80877 | 38126 ft | 425 kts | 259° |
| 2026-05-07 05:53 | -22.83748 | 46.74648 | 38120 ft | 425 kts | 260° |
| 2026-05-07 05:54 | -22.84960 | 46.68368 | 38136 ft | 425 kts | 260° |
| 2026-05-07 05:54 | -22.86171 | 46.62085 | 38135 ft | 425 kts | 260° |
| 2026-05-07 05:55 | -22.87373 | 46.55839 | 38123 ft | 425 kts | 260° |
| 2026-05-07 05:55 | -22.88577 | 46.49564 | 38148 ft | 425 kts | 260° |
| 2026-05-07 05:56 | -22.89782 | 46.43269 | 38138 ft | 425 kts | 260° |
| 2026-05-07 05:56 | -22.90972 | 46.37040 | 38129 ft | 424 kts | 260° |
| 2026-05-07 05:57 | -22.92167 | 46.30774 | 38133 ft | 424 kts | 260° |
| 2026-05-07 05:57 | -22.93361 | 46.24495 | 38130 ft | 424 kts | 260° |
| 2026-05-07 05:58 | -22.94551 | 46.18222 | 38128 ft | 424 kts | 260° |
| 2026-05-07 05:58 | -22.95739 | 46.11943 | 38120 ft | 424 kts | 260° |
| 2026-05-07 05:59 | -22.96924 | 46.05676 | 38112 ft | 424 kts | 260° |
| 2026-05-07 05:59 | -22.98099 | 45.99445 | 38097 ft | 424 kts | 260° |
| 2026-05-07 06:00 | -22.99280 | 45.93167 | 38100 ft | 423 kts | 261° |
| 2026-05-07 06:00 | -23.00455 | 45.86905 | 38094 ft | 423 kts | 261° |
| 2026-05-07 06:01 | -23.01619 | 45.80686 | 38085 ft | 422 kts | 261° |
| 2026-05-07 06:01 | -23.02788 | 45.74427 | 38074 ft | 422 kts | 261° |
| 2026-05-07 06:02 | -23.03249 | 45.71953 | 38072 ft | 422 kts | 261° |
| 2026-05-07 06:02 | -23.04235 | 45.66659 | 38068 ft | 422 kts | 261° |
| 2026-05-07 06:03 | -23.05391 | 45.60441 | 38063 ft | 422 kts | 261° |
| 2026-05-07 06:03 | -23.06551 | 45.54183 | 38061 ft | 422 kts | 261° |
| 2026-05-07 06:04 | -23.07707 | 45.47930 | 38061 ft | 422 kts | 261° |
| 2026-05-07 06:04 | -23.08853 | 45.41718 | 38068 ft | 422 kts | 261° |
| 2026-05-07 06:05 | -23.10007 | 45.35453 | 38070 ft | 422 kts | 261° |
| 2026-05-07 06:05 | -23.11154 | 45.29209 | 38078 ft | 423 kts | 261° |
| 2026-05-07 06:06 | -23.12305 | 45.22930 | 38077 ft | 423 kts | 261° |
| 2026-05-07 06:06 | -23.13454 | 45.16646 | 38078 ft | 423 kts | 261° |
| 2026-05-07 06:07 | -23.14595 | 45.10390 | 38072 ft | 423 kts | 261° |
| 2026-05-07 06:07 | -23.15739 | 45.04104 | 38066 ft | 423 kts | 261° |
| 2026-05-07 06:08 | -23.16873 | 44.97858 | 38056 ft | 423 kts | 261° |
| 2026-05-07 06:08 | -23.18005 | 44.91610 | 38056 ft | 421 kts | 261° |
| 2026-05-07 06:09 | -23.19133 | 44.85363 | 38056 ft | 422 kts | 261° |
| 2026-05-07 06:09 | -23.20264 | 44.79090 | 38050 ft | 421 kts | 261° |
| 2026-05-07 06:10 | -23.21383 | 44.72864 | 38043 ft | 421 kts | 261° |
| 2026-05-07 06:10 | -23.22507 | 44.66600 | 38044 ft | 421 kts | 261° |
| 2026-05-07 06:11 | -23.23621 | 44.60378 | 38048 ft | 421 kts | 262° |
| 2026-05-07 06:11 | -23.24740 | 44.54108 | 38041 ft | 421 kts | 262° |
| 2026-05-07 06:12 | -23.25856 | 44.47847 | 38038 ft | 421 kts | 262° |
| 2026-05-07 06:12 | -23.26960 | 44.41632 | 38034 ft | 421 kts | 262° |
| 2026-05-07 06:13 | -23.28072 | 44.35362 | 38035 ft | 421 kts | 262° |
| 2026-05-07 06:13 | -23.29176 | 44.29120 | 38030 ft | 420 kts | 262° |
| 2026-05-07 06:14 | -23.30279 | 44.22868 | 38025 ft | 420 kts | 262° |
| 2026-05-07 06:14 | -23.31372 | 44.16658 | 38027 ft | 420 kts | 262° |
| 2026-05-07 06:15 | -23.32467 | 44.10422 | 38018 ft | 420 kts | 262° |
| 2026-05-07 06:15 | -23.33560 | 44.04182 | 38011 ft | 419 kts | 262° |
| 2026-05-07 06:16 | -23.34646 | 43.97968 | 38007 ft | 419 kts | 262° |
| 2026-05-07 06:16 | -23.35733 | 43.91731 | 38007 ft | 419 kts | 262° |
| 2026-05-07 06:17 | -23.36821 | 43.85483 | 38004 ft | 419 kts | 262° |
| 2026-05-07 06:17 | -23.37900 | 43.79274 | 38002 ft | 419 kts | 262° |
| 2026-05-07 06:18 | -23.38984 | 43.73027 | 37999 ft | 419 kts | 261° |
| 2026-05-07 06:18 | -23.40478 | 43.66853 | 37995 ft | 421 kts | 257° |
| 2026-05-07 06:19 | -23.42075 | 43.60710 | 38001 ft | 421 kts | 257° |
| 2026-05-07 06:19 | -23.43649 | 43.54616 | 37999 ft | 421 kts | 257° |
| 2026-05-07 06:20 | -23.45232 | 43.48464 | 37999 ft | 420 kts | 257° |
| 2026-05-07 06:20 | -23.46808 | 43.42318 | 38011 ft | 420 kts | 258° |
| 2026-05-07 06:21 | -23.48370 | 43.36217 | 38004 ft | 420 kts | 258° |
| 2026-05-07 06:21 | -23.49938 | 43.30077 | 38000 ft | 420 kts | 258° |
| 2026-05-07 06:22 | -23.51498 | 43.23959 | 37996 ft | 419 kts | 258° |
| 2026-05-07 06:22 | -23.53825 | 43.14816 | 38000 ft | 418 kts | 258° |
| 2026-05-07 06:23 | -23.55384 | 43.08676 | 37997 ft | 418 kts | 258° |
| 2026-05-07 06:23 | -23.56922 | 43.02607 | 37993 ft | 417 kts | 258° |
| 2026-05-07 06:24 | -23.58462 | 42.96520 | 37996 ft | 417 kts | 258° |
| 2026-05-07 06:24 | -23.60003 | 42.90416 | 37993 ft | 417 kts | 258° |
| 2026-05-07 06:25 | -23.61542 | 42.84313 | 37993 ft | 416 kts | 258° |
| 2026-05-07 06:25 | -23.63067 | 42.78251 | 37991 ft | 416 kts | 258° |
| 2026-05-07 06:26 | -23.64596 | 42.72167 | 37984 ft | 416 kts | 258° |
| 2026-05-07 06:26 | -23.66117 | 42.66100 | 37987 ft | 416 kts | 258° |
| 2026-05-07 06:27 | -23.67642 | 42.60008 | 38004 ft | 415 kts | 258° |
| 2026-05-07 06:27 | -23.69164 | 42.53917 | 38002 ft | 415 kts | 258° |
| 2026-05-07 06:28 | -23.70675 | 42.47857 | 38003 ft | 415 kts | 258° |
| 2026-05-07 06:28 | -23.72190 | 42.41774 | 38002 ft | 415 kts | 258° |
| 2026-05-07 06:29 | -23.73705 | 42.35679 | 38015 ft | 415 kts | 258° |
| 2026-05-07 06:29 | -23.75208 | 42.29622 | 38011 ft | 415 kts | 259° |
| 2026-05-07 06:30 | -23.76465 | 42.24545 | 38013 ft | 415 kts | 259° |
| 2026-05-07 06:30 | -23.77970 | 42.18460 | 38015 ft | 414 kts | 259° |
| 2026-05-07 06:31 | -23.79462 | 42.12418 | 38002 ft | 411 kts | 259° |
| 2026-05-07 06:31 | -23.80952 | 42.06366 | 38005 ft | 412 kts | 259° |
| 2026-05-07 06:32 | -23.82430 | 42.00355 | 38004 ft | 411 kts | 259° |
| 2026-05-07 06:32 | -23.83916 | 41.94303 | 38003 ft | 411 kts | 259° |
| 2026-05-07 06:33 | -23.85386 | 41.88305 | 38002 ft | 410 kts | 259° |
| 2026-05-07 06:33 | -23.86859 | 41.82278 | 38008 ft | 410 kts | 259° |
| 2026-05-07 06:34 | -23.88331 | 41.76251 | 38014 ft | 410 kts | 259° |
| 2026-05-07 06:34 | -23.89803 | 41.70208 | 38014 ft | 410 kts | 259° |
| 2026-05-07 06:35 | -23.91263 | 41.64206 | 38005 ft | 410 kts | 259° |
| 2026-05-07 06:35 | -23.92722 | 41.58199 | 38008 ft | 410 kts | 259° |
| 2026-05-07 06:36 | -23.94184 | 41.52166 | 38016 ft | 410 kts | 259° |
| 2026-05-07 06:36 | -23.95636 | 41.46162 | 38015 ft | 410 kts | 259° |
| 2026-05-07 06:37 | -23.97093 | 41.40127 | 38014 ft | 410 kts | 259° |
| 2026-05-07 06:37 | -23.98544 | 41.34106 | 38025 ft | 409 kts | 259° |
| 2026-05-07 06:38 | -23.99987 | 41.28111 | 38016 ft | 409 kts | 260° |
| 2026-05-07 06:38 | -24.01437 | 41.22071 | 38017 ft | 409 kts | 260° |
| 2026-05-07 06:39 | -24.02878 | 41.16058 | 38014 ft | 409 kts | 260° |
| 2026-05-07 06:39 | -24.04321 | 41.10030 | 38021 ft | 408 kts | 260° |
| 2026-05-07 06:40 | -24.05756 | 41.04019 | 38006 ft | 408 kts | 260° |
| 2026-05-07 06:40 | -24.07180 | 40.98042 | 38013 ft | 408 kts | 260° |
| 2026-05-07 06:41 | -24.08611 | 40.92028 | 38007 ft | 407 kts | 260° |
| 2026-05-07 06:41 | -24.10031 | 40.86051 | 38005 ft | 407 kts | 260° |
| 2026-05-07 06:42 | -24.11449 | 40.80066 | 38007 ft | 407 kts | 260° |
| 2026-05-07 06:42 | -24.12869 | 40.74062 | 38004 ft | 407 kts | 260° |
| 2026-05-07 06:43 | -24.14288 | 40.68052 | 38008 ft | 407 kts | 260° |
| 2026-05-07 06:43 | -24.15695 | 40.62087 | 38000 ft | 407 kts | 260° |
| 2026-05-07 06:44 | -24.17109 | 40.56071 | 38003 ft | 407 kts | 260° |
| 2026-05-07 06:44 | -24.18520 | 40.50062 | 38005 ft | 407 kts | 260° |
| 2026-05-07 06:45 | -24.19919 | 40.44093 | 38007 ft | 407 kts | 260° |
| 2026-05-07 06:45 | -24.21319 | 40.38109 | 38004 ft | 407 kts | 260° |
| 2026-05-07 06:46 | -24.22725 | 40.32087 | 38004 ft | 407 kts | 260° |
| 2026-05-07 06:46 | -24.24119 | 40.26108 | 38004 ft | 407 kts | 260° |
| 2026-05-07 06:47 | -24.25466 | 40.20315 | 38007 ft | 407 kts | 260° |
| 2026-05-07 06:47 | -24.26863 | 40.14300 | 38007 ft | 407 kts | 260° |
| 2026-05-07 06:48 | -24.28252 | 40.08313 | 38007 ft | 407 kts | 260° |
| 2026-05-07 06:48 | -24.29645 | 40.02300 | 38014 ft | 406 kts | 260° |
| 2026-05-07 06:49 | -24.30737 | 39.96235 | 38006 ft | 404 kts | 265° |
| 2026-05-07 06:49 | -24.31647 | 39.90184 | 38003 ft | 404 kts | 264° |
| 2026-05-07 06:50 | -24.32577 | 39.84102 | 38001 ft | 403 kts | 265° |
| 2026-05-07 06:50 | -24.33490 | 39.78083 | 38000 ft | 403 kts | 264° |
| 2026-05-07 06:51 | -24.34405 | 39.72003 | 38002 ft | 403 kts | 265° |
| 2026-05-07 06:51 | -24.35317 | 39.65930 | 37998 ft | 403 kts | 265° |
| 2026-05-07 06:52 | -24.36229 | 39.59839 | 37995 ft | 403 kts | 265° |
| 2026-05-07 06:52 | -24.37131 | 39.53790 | 37990 ft | 404 kts | 264° |
| 2026-05-07 06:53 | -24.38038 | 39.47696 | 37995 ft | 404 kts | 264° |
| 2026-05-07 06:53 | -24.38938 | 39.41636 | 37993 ft | 404 kts | 265° |
| 2026-05-07 06:54 | -24.39838 | 39.35559 | 37993 ft | 404 kts | 265° |
| 2026-05-07 06:54 | -24.40737 | 39.29464 | 37996 ft | 404 kts | 265° |
| 2026-05-07 06:55 | -24.41638 | 39.23346 | 37998 ft | 405 kts | 265° |
| 2026-05-07 06:55 | -24.42527 | 39.17283 | 38002 ft | 405 kts | 265° |
| 2026-05-07 06:56 | -24.43422 | 39.11167 | 38014 ft | 405 kts | 265° |
| 2026-05-07 06:56 | -24.44308 | 39.05095 | 38008 ft | 405 kts | 265° |
| 2026-05-07 06:57 | -24.45200 | 38.98969 | 37996 ft | 406 kts | 265° |
| 2026-05-07 06:57 | -24.46088 | 38.92844 | 37998 ft | 406 kts | 265° |
| 2026-05-07 06:58 | -24.46970 | 38.86751 | 37994 ft | 406 kts | 265° |
| 2026-05-07 06:58 | -24.47853 | 38.80626 | 37997 ft | 406 kts | 265° |
| 2026-05-07 06:59 | -24.48731 | 38.74520 | 37997 ft | 406 kts | 265° |
| 2026-05-07 06:59 | -24.49611 | 38.68384 | 37996 ft | 406 kts | 265° |
| 2026-05-07 07:00 | -24.50489 | 38.62246 | 37995 ft | 405 kts | 265° |
| 2026-05-07 07:00 | -24.51356 | 38.56159 | 37994 ft | 406 kts | 265° |
| 2026-05-07 07:01 | -24.52228 | 38.50022 | 37991 ft | 406 kts | 265° |
| 2026-05-07 07:01 | -24.53097 | 38.43887 | 37990 ft | 406 kts | 265° |
| 2026-05-07 07:02 | -24.53959 | 38.37786 | 37987 ft | 406 kts | 265° |
| 2026-05-07 07:02 | -24.54819 | 38.31683 | 37986 ft | 405 kts | 265° |
| 2026-05-07 07:03 | -24.55679 | 38.25559 | 37983 ft | 405 kts | 265° |
| 2026-05-07 07:03 | -24.56537 | 38.19431 | 37982 ft | 405 kts | 265° |
| 2026-05-07 07:04 | -24.57387 | 38.13343 | 37989 ft | 405 kts | 265° |
| 2026-05-07 07:04 | -24.58239 | 38.07214 | 37986 ft | 405 kts | 265° |
| 2026-05-07 07:05 | -24.59088 | 38.01098 | 37985 ft | 405 kts | 265° |
| 2026-05-07 07:05 | -24.59928 | 37.95021 | 37993 ft | 404 kts | 265° |
| 2026-05-07 07:06 | -24.60772 | 37.88903 | 37986 ft | 404 kts | 265° |
| 2026-05-07 07:06 | -24.61617 | 37.82758 | 37986 ft | 404 kts | 266° |
| 2026-05-07 07:07 | -24.62450 | 37.76671 | 37972 ft | 404 kts | 265° |
| 2026-05-07 07:07 | -24.63286 | 37.70558 | 37985 ft | 404 kts | 265° |
| 2026-05-07 07:08 | -24.64114 | 37.64479 | 37978 ft | 404 kts | 266° |
| 2026-05-07 07:08 | -24.64940 | 37.58398 | 37970 ft | 404 kts | 266° |
| 2026-05-07 07:09 | -24.65766 | 37.52288 | 37971 ft | 404 kts | 266° |
| 2026-05-07 07:09 | -24.66590 | 37.46185 | 37982 ft | 404 kts | 266° |
| 2026-05-07 07:10 | -24.67408 | 37.40103 | 37971 ft | 404 kts | 266° |
| 2026-05-07 07:10 | -24.68228 | 37.33991 | 37972 ft | 403 kts | 266° |
| 2026-05-07 07:11 | -24.69045 | 37.27876 | 37972 ft | 403 kts | 266° |
| 2026-05-07 07:11 | -24.69859 | 37.21766 | 37975 ft | 403 kts | 266° |
| 2026-05-07 07:12 | -24.70667 | 37.15689 | 37968 ft | 403 kts | 266° |
| 2026-05-07 07:12 | -24.71477 | 37.09571 | 37965 ft | 403 kts | 266° |
| 2026-05-07 07:13 | -24.72278 | 37.03497 | 37966 ft | 403 kts | 266° |
| 2026-05-07 07:13 | -24.73084 | 36.97376 | 37966 ft | 403 kts | 266° |
| 2026-05-07 07:14 | -24.73885 | 36.91267 | 37960 ft | 403 kts | 266° |
| 2026-05-07 07:14 | -24.74684 | 36.85154 | 37959 ft | 403 kts | 266° |
| 2026-05-07 07:15 | -24.75475 | 36.79090 | 37964 ft | 403 kts | 266° |
| 2026-05-07 07:15 | -24.76270 | 36.72967 | 37960 ft | 403 kts | 266° |
| 2026-05-07 07:16 | -24.77060 | 36.66884 | 37956 ft | 403 kts | 266° |
| 2026-05-07 07:16 | -24.77853 | 36.60753 | 37954 ft | 404 kts | 266° |
| 2026-05-07 07:17 | -24.78636 | 36.54632 | 37952 ft | 404 kts | 266° |
| 2026-05-07 07:17 | -24.79413 | 36.48546 | 37961 ft | 404 kts | 267° |
| 2026-05-07 07:18 | -24.80197 | 36.42407 | 37955 ft | 404 kts | 267° |
| 2026-05-07 07:18 | -24.80977 | 36.36275 | 37956 ft | 405 kts | 267° |
| 2026-05-07 07:19 | -24.81755 | 36.30136 | 37953 ft | 405 kts | 267° |
| 2026-05-07 07:19 | -24.82530 | 36.23997 | 37965 ft | 405 kts | 267° |
| 2026-05-07 07:20 | -24.83300 | 36.17881 | 37926 ft | 405 kts | 267° |
| 2026-05-07 07:20 | -24.84070 | 36.11744 | 37953 ft | 405 kts | 267° |
| 2026-05-07 07:21 | -24.84840 | 36.05590 | 37953 ft | 405 kts | 267° |
| 2026-05-07 07:21 | -24.85602 | 35.99474 | 37953 ft | 405 kts | 267° |
| 2026-05-07 07:22 | -24.86238 | 35.94350 | 37951 ft | 405 kts | 267° |
| 2026-05-07 07:22 | -24.87124 | 35.87194 | 37952 ft | 405 kts | 267° |
| 2026-05-07 07:23 | -24.87760 | 35.82040 | 37951 ft | 405 kts | 267° |
| 2026-05-07 07:23 | -24.88511 | 35.75932 | 37950 ft | 405 kts | 267° |
| 2026-05-07 07:24 | -24.89266 | 35.69778 | 37944 ft | 405 kts | 267° |
| 2026-05-07 07:24 | -24.90018 | 35.63617 | 37944 ft | 405 kts | 267° |
| 2026-05-07 07:25 | -24.91137 | 35.54412 | 37948 ft | 405 kts | 267° |
| 2026-05-07 07:26 | -24.91883 | 35.48257 | 37955 ft | 404 kts | 267° |
| 2026-05-07 07:26 | -24.92623 | 35.42124 | 37947 ft | 402 kts | 267° |
| 2026-05-07 07:27 | -24.93354 | 35.36040 | 37947 ft | 403 kts | 267° |
| 2026-05-07 07:27 | -24.94089 | 35.29907 | 37950 ft | 403 kts | 267° |
| 2026-05-07 07:28 | -24.94816 | 35.23813 | 37978 ft | 402 kts | 267° |
| 2026-05-07 07:28 | -24.95542 | 35.17720 | 37943 ft | 398 kts | 267° |
| 2026-05-07 07:29 | -24.96258 | 35.11670 | 37937 ft | 400 kts | 267° |
| 2026-05-07 07:29 | -24.96974 | 35.05617 | 37955 ft | 399 kts | 267° |
| 2026-05-07 07:30 | -24.97689 | 34.99537 | 37955 ft | 399 kts | 267° |
| 2026-05-07 07:30 | -24.98404 | 34.93453 | 37944 ft | 398 kts | 267° |
| 2026-05-07 07:31 | -24.99110 | 34.87413 | 37928 ft | 396 kts | 267° |
| 2026-05-07 07:31 | -24.99805 | 34.81430 | 37953 ft | 399 kts | 267° |
| 2026-05-07 07:32 | -25.00510 | 34.75349 | 37951 ft | 399 kts | 267° |
| 2026-05-07 07:32 | -25.01212 | 34.69287 | 37952 ft | 399 kts | 268° |
| 2026-05-07 07:33 | -25.01909 | 34.63242 | 37953 ft | 399 kts | 268° |
| 2026-05-07 07:33 | -25.02585 | 34.57359 | 37950 ft | 399 kts | 268° |
| 2026-05-07 07:34 | -25.03276 | 34.51310 | 37953 ft | 399 kts | 268° |
| 2026-05-07 07:34 | -25.03965 | 34.45244 | 37950 ft | 399 kts | 268° |
| 2026-05-07 07:35 | -25.04651 | 34.39198 | 37949 ft | 399 kts | 268° |
| 2026-05-07 07:35 | -25.05338 | 34.33130 | 37953 ft | 399 kts | 268° |
| 2026-05-07 07:36 | -25.06019 | 34.27090 | 37951 ft | 399 kts | 268° |
| 2026-05-07 07:36 | -25.06705 | 34.20976 | 37981 ft | 399 kts | 268° |
| 2026-05-07 07:37 | -25.07386 | 34.14890 | 37967 ft | 399 kts | 268° |
| 2026-05-07 07:37 | -25.08063 | 34.08820 | 37966 ft | 399 kts | 268° |
| 2026-05-07 07:38 | -25.08734 | 34.02773 | 37968 ft | 399 kts | 268° |
| 2026-05-07 07:38 | -25.09407 | 33.96692 | 37968 ft | 399 kts | 268° |
| 2026-05-07 07:39 | -25.10074 | 33.90651 | 37958 ft | 396 kts | 268° |
| 2026-05-07 07:39 | -25.10737 | 33.84604 | 37958 ft | 396 kts | 268° |
| 2026-05-07 07:40 | -25.11395 | 33.78589 | 37955 ft | 396 kts | 268° |
| 2026-05-07 07:40 | -25.12053 | 33.72545 | 37966 ft | 396 kts | 268° |
| 2026-05-07 07:41 | -25.12710 | 33.66494 | 37967 ft | 397 kts | 268° |
| 2026-05-07 07:41 | -25.13360 | 33.60489 | 37965 ft | 396 kts | 268° |
| 2026-05-07 07:42 | -25.14010 | 33.54454 | 37971 ft | 396 kts | 268° |
| 2026-05-07 07:42 | -25.14658 | 33.48411 | 37966 ft | 396 kts | 268° |
| 2026-05-07 07:43 | -25.15303 | 33.42375 | 37961 ft | 396 kts | 268° |
| 2026-05-07 07:43 | -25.15943 | 33.36369 | 37955 ft | 395 kts | 268° |
| 2026-05-07 07:44 | -25.16583 | 33.30327 | 37952 ft | 395 kts | 268° |
| 2026-05-07 07:44 | -25.17218 | 33.24319 | 37940 ft | 395 kts | 268° |
| 2026-05-07 07:45 | -25.17854 | 33.18278 | 37944 ft | 395 kts | 268° |
| 2026-05-07 07:45 | -25.18487 | 33.12231 | 37939 ft | 396 kts | 268° |
| 2026-05-07 07:46 | -25.19115 | 33.06226 | 37938 ft | 396 kts | 268° |
| 2026-05-07 07:46 | -25.19742 | 33.00194 | 37928 ft | 395 kts | 269° |
| 2026-05-07 07:47 | -25.20368 | 32.94147 | 37932 ft | 395 kts | 269° |
| 2026-05-07 07:47 | -25.20987 | 32.88142 | 37951 ft | 395 kts | 268° |
| 2026-05-07 07:48 | -25.21605 | 32.82135 | 37925 ft | 393 kts | 269° |
| 2026-05-07 07:48 | -25.22215 | 32.76163 | 37925 ft | 393 kts | 269° |
| 2026-05-07 07:49 | -25.22827 | 32.70153 | 37938 ft | 394 kts | 268° |
| 2026-05-07 07:49 | -25.23440 | 32.64104 | 37933 ft | 395 kts | 268° |
| 2026-05-07 07:50 | -25.24047 | 32.58120 | 37924 ft | 391 kts | 268° |
| 2026-05-07 07:50 | -25.24592 | 32.52141 | 37926 ft | 390 kts | 272° |
| 2026-05-07 07:51 | -25.24392 | 32.46171 | 37926 ft | 386 kts | 280° |
| 2026-05-07 07:51 | -25.23320 | 32.40394 | 37928 ft | 384 kts | 288° |
| 2026-05-07 07:52 | -25.21731 | 32.34787 | 37929 ft | 384 kts | 288° |
| 2026-05-07 07:52 | -25.20159 | 32.29183 | 37941 ft | 379 kts | 288° |
| 2026-05-07 07:53 | -25.18596 | 32.23636 | 37943 ft | 381 kts | 288° |
| 2026-05-07 07:53 | -25.17017 | 32.18057 | 37953 ft | 380 kts | 288° |
| 2026-05-07 07:54 | -25.15437 | 32.12481 | 37951 ft | 381 kts | 288° |
| 2026-05-07 07:54 | -25.13862 | 32.06932 | 37989 ft | 380 kts | 288° |
| 2026-05-07 07:55 | -25.12285 | 32.01392 | 37959 ft | 378 kts | 288° |
| 2026-05-07 07:55 | -25.10694 | 31.95804 | 37969 ft | 384 kts | 288° |
| 2026-05-07 07:56 | -25.09100 | 31.90215 | 37975 ft | 382 kts | 288° |
| 2026-05-07 07:56 | -25.07500 | 31.84613 | 37978 ft | 383 kts | 288° |
| 2026-05-07 07:57 | -25.05906 | 31.79043 | 37994 ft | 382 kts | 288° |
| 2026-05-07 07:57 | -25.04306 | 31.73457 | 37973 ft | 379 kts | 288° |
| 2026-05-07 07:58 | -25.02724 | 31.67946 | 37976 ft | 377 kts | 288° |
| 2026-05-07 07:58 | -25.01123 | 31.62376 | 37995 ft | 382 kts | 288° |
| 2026-05-07 07:59 | -24.99517 | 31.56796 | 37995 ft | 381 kts | 288° |
| 2026-05-07 07:59 | -24.97920 | 31.51257 | 38012 ft | 382 kts | 288° |
| 2026-05-07 08:00 | -24.96298 | 31.45643 | 38004 ft | 382 kts | 288° |
| 2026-05-07 08:00 | -24.94696 | 31.40102 | 38012 ft | 381 kts | 288° |
| 2026-05-07 08:01 | -24.93081 | 31.34526 | 38004 ft | 381 kts | 288° |
| 2026-05-07 08:01 | -24.91464 | 31.28954 | 37999 ft | 380 kts | 288° |
| 2026-05-07 08:02 | -24.89864 | 31.23446 | 38020 ft | 380 kts | 288° |
| 2026-05-07 08:02 | -24.88249 | 31.17896 | 38010 ft | 380 kts | 288° |
| 2026-05-07 08:03 | -24.86652 | 31.12376 | 38008 ft | 379 kts | 285° |
| 2026-05-07 08:03 | -24.85862 | 31.06631 | 38011 ft | 382 kts | 274° |
| 2026-05-07 08:04 | -24.86397 | 31.00764 | 38010 ft | 388 kts | 261° |
| 2026-05-07 08:04 | -24.87915 | 30.95072 | 38044 ft | 390 kts | 258° |
| 2026-05-07 08:05 | -24.89481 | 30.89334 | 38045 ft | 389 kts | 258° |
| 2026-05-07 08:05 | -24.91022 | 30.83663 | 38040 ft | 388 kts | 258° |
| 2026-05-07 08:06 | -24.92573 | 30.77952 | 38039 ft | 388 kts | 258° |
| 2026-05-07 08:06 | -24.94124 | 30.72235 | 38046 ft | 388 kts | 258° |
| 2026-05-07 08:07 | -24.95669 | 30.66528 | 38051 ft | 389 kts | 258° |
| 2026-05-07 08:07 | -24.97204 | 30.60846 | 38077 ft | 389 kts | 258° |
| 2026-05-07 08:08 | -24.98753 | 30.55108 | 38072 ft | 390 kts | 258° |
| 2026-05-07 08:08 | -25.00289 | 30.49408 | 38089 ft | 390 kts | 258° |
| 2026-05-07 08:09 | -25.01835 | 30.43659 | 38086 ft | 390 kts | 258° |
| 2026-05-07 08:09 | -25.03363 | 30.37969 | 38084 ft | 388 kts | 258° |
| 2026-05-07 08:10 | -25.04892 | 30.32264 | 38081 ft | 388 kts | 258° |
| 2026-05-07 08:10 | -25.06424 | 30.26539 | 38093 ft | 387 kts | 258° |
| 2026-05-07 08:11 | -25.07939 | 30.20867 | 38091 ft | 388 kts | 258° |
| 2026-05-07 08:11 | -25.09457 | 30.15174 | 38102 ft | 388 kts | 258° |
| 2026-05-07 08:12 | -25.10978 | 30.09466 | 38095 ft | 387 kts | 259° |
| 2026-05-07 08:12 | -25.12498 | 30.03750 | 38100 ft | 387 kts | 259° |
| 2026-05-07 08:13 | -25.14011 | 29.98041 | 38115 ft | 388 kts | 258° |
| 2026-05-07 08:13 | -25.15514 | 29.92365 | 38129 ft | 388 kts | 258° |
| 2026-05-07 08:14 | -25.17034 | 29.86622 | 38128 ft | 388 kts | 258° |
| 2026-05-07 08:14 | -25.18292 | 29.81857 | 38152 ft | 388 kts | 258° |
| 2026-05-07 08:15 | -25.20043 | 29.75218 | 38131 ft | 386 kts | 259° |
| 2026-05-07 08:15 | -25.21292 | 29.70472 | 38133 ft | 386 kts | 259° |
| 2026-05-07 08:16 | -25.22789 | 29.64770 | 38135 ft | 386 kts | 259° |
| 2026-05-07 08:16 | -25.24287 | 29.59059 | 38136 ft | 386 kts | 259° |
| 2026-05-07 08:17 | -25.25772 | 29.53385 | 38150 ft | 386 kts | 259° |
| 2026-05-07 08:17 | -25.27269 | 29.47661 | 38135 ft | 386 kts | 259° |
| 2026-05-07 08:18 | -25.28744 | 29.42001 | 38134 ft | 386 kts | 259° |
| 2026-05-07 08:18 | -25.30197 | 29.36426 | 37833 ft | 386 kts | 259° |
| 2026-05-07 08:18 | -25.30938 | 29.33581 | 37567 ft | 385 kts | 259° |
| 2026-05-07 08:19 | -25.31677 | 29.30743 | 37307 ft | 384 kts | 259° |
| 2026-05-07 08:19 | -25.32414 | 29.27903 | 37058 ft | 385 kts | 259° |
| 2026-05-07 08:19 | -25.33156 | 29.25043 | 36567 ft | 387 kts | 259° |
| 2026-05-07 08:19 | -25.33899 | 29.22169 | 35867 ft | 391 kts | 259° |
| 2026-05-07 08:20 | -25.34654 | 29.19253 | 35029 ft | 395 kts | 259° |
| 2026-05-07 08:20 | -25.35404 | 29.16361 | 34251 ft | 396 kts | 260° |
| 2026-05-07 08:20 | -25.36162 | 29.13435 | 33422 ft | 396 kts | 260° |
| 2026-05-07 08:20 | -25.36918 | 29.10515 | 32684 ft | 394 kts | 260° |
| 2026-05-07 08:21 | -25.37675 | 29.07586 | 31870 ft | 395 kts | 259° |
| 2026-05-07 08:21 | -25.38428 | 29.04664 | 31026 ft | 395 kts | 259° |
| 2026-05-07 08:21 | -25.39172 | 29.01777 | 30273 ft | 395 kts | 259° |
| 2026-05-07 08:21 | -25.39923 | 28.98857 | 29386 ft | 394 kts | 259° |
| 2026-05-07 08:22 | -25.40671 | 28.95956 | 28832 ft | 387 kts | 259° |
| 2026-05-07 08:22 | -25.41398 | 28.93144 | 28536 ft | 374 kts | 259° |
| 2026-05-07 08:22 | -25.42061 | 28.90573 | 28039 ft | 367 kts | 259° |
| 2026-05-07 08:22 | -25.42754 | 28.87872 | 27496 ft | 362 kts | 259° |
| 2026-05-07 08:23 | -25.43431 | 28.85225 | 27107 ft | 353 kts | 259° |
| 2026-05-07 08:23 | -25.44089 | 28.82666 | 26975 ft | 337 kts | 259° |
| 2026-05-07 08:23 | -25.44751 | 28.80239 | 26853 ft | 326 kts | 255° |
| 2026-05-07 08:23 | -25.45597 | 28.78046 | 27008 ft | 302 kts | 253° |
| 2026-05-07 08:24 | -25.46791 | 28.76066 | 26264 ft | 326 kts | 234° |
| 2026-05-07 08:24 | -25.48738 | 28.74610 | 25912 ft | 351 kts | 214° |
| 2026-05-07 08:24 | -25.51195 | 28.73929 | 25694 ft | 380 kts | 195° |
| 2026-05-07 08:24 | -25.53933 | 28.74051 | 25225 ft | 403 kts | 182° |
| 2026-05-07 08:25 | -25.56679 | 28.74531 | 24901 ft | 403 kts | 181° |
| 2026-05-07 08:25 | -25.59431 | 28.75002 | 24542 ft | 396 kts | 183° |
| 2026-05-07 08:25 | -25.62162 | 28.75369 | 24108 ft | 393 kts | 185° |
| 2026-05-07 08:25 | -25.64873 | 28.75646 | 23641 ft | 389 kts | 186° |
| 2026-05-07 08:26 | -25.70202 | 28.76080 | 22652 ft | 379 kts | 186° |
| 2026-05-07 08:26 | -25.72808 | 28.76276 | 22017 ft | 373 kts | 186° |
| 2026-05-07 08:26 | -25.75359 | 28.76464 | 21318 ft | 371 kts | 186° |
| 2026-05-07 08:27 | -25.77968 | 28.76656 | 20568 ft | 369 kts | 185° |
| 2026-05-07 08:27 | -25.80493 | 28.76843 | 19862 ft | 368 kts | 185° |
| 2026-05-07 08:27 | -25.83045 | 28.77030 | 19168 ft | 365 kts | 186° |
| 2026-05-07 08:27 | -25.85483 | 28.76726 | 18486 ft | 344 kts | 206° |
| 2026-05-07 08:28 | -25.87527 | 28.75522 | 17717 ft | 323 kts | 228° |
| 2026-05-07 08:28 | -25.88890 | 28.73643 | 16979 ft | 307 kts | 249° |
| 2026-05-07 08:28 | -25.89480 | 28.71415 | 16244 ft | 298 kts | 264° |
| 2026-05-07 08:28 | -25.89806 | 28.69136 | 15504 ft | 297 kts | 264° |
| 2026-05-07 08:29 | -25.90156 | 28.66883 | 14791 ft | 296 kts | 263° |
| 2026-05-07 08:29 | -25.90524 | 28.64630 | 14109 ft | 295 kts | 263° |
| 2026-05-07 08:29 | -25.90900 | 28.62389 | 13351 ft | 295 kts | 262° |
| 2026-05-07 08:29 | -25.91272 | 28.60185 | 12601 ft | 294 kts | 261° |
| 2026-05-07 08:30 | -25.91649 | 28.57954 | 11854 ft | 293 kts | 261° |
| 2026-05-07 08:30 | -25.92025 | 28.55728 | 11119 ft | 292 kts | 260° |
| 2026-05-07 08:30 | -25.92399 | 28.53513 | 10533 ft | 287 kts | 259° |
| 2026-05-07 08:30 | -25.92756 | 28.51405 | 10305 ft | 270 kts | 259° |
| 2026-05-07 08:31 | -25.93099 | 28.49376 | 9791 ft | 265 kts | 259° |
| 2026-05-07 08:31 | -25.93437 | 28.47380 | 9137 ft | 265 kts | 258° |
| 2026-05-07 08:31 | -25.93778 | 28.45366 | 8525 ft | 264 kts | 258° |
| 2026-05-07 08:31 | -25.94114 | 28.43377 | 8251 ft | 264 kts | 258° |
| 2026-05-07 08:32 | -25.94456 | 28.41349 | 8171 ft | 266 kts | 258° |
| 2026-05-07 08:32 | -25.94793 | 28.39347 | 8166 ft | 266 kts | 258° |
| 2026-05-07 08:32 | -25.95131 | 28.37339 | 8169 ft | 264 kts | 258° |
| 2026-05-07 08:32 | -25.95468 | 28.35331 | 8170 ft | 263 kts | 258° |
| 2026-05-07 08:33 | -25.95823 | 28.33342 | 8171 ft | 261 kts | 252° |
| 2026-05-07 08:33 | -25.96695 | 28.31585 | 8171 ft | 261 kts | 227° |
| 2026-05-07 08:33 | -25.98123 | 28.30488 | 8166 ft | 241 kts | 203° |
| 2026-05-07 08:33 | -25.99651 | 28.30015 | 8161 ft | 220 kts | 198° |
| 2026-05-07 08:34 | -26.01121 | 28.29572 | 8169 ft | 220 kts | 199° |
| 2026-05-07 08:34 | -26.02613 | 28.29103 | 7793 ft | 224 kts | 199° |
| 2026-05-07 08:34 | -26.04108 | 28.28652 | 7470 ft | 217 kts | 198° |
| 2026-05-07 08:34 | -26.05526 | 28.28208 | 7203 ft | 209 kts | 197° |
| 2026-05-07 08:35 | -26.06077 | 28.28040 | 7115 ft | 212 kts | 198° |
| 2026-05-07 08:35 | -26.07387 | 28.27631 | 6865 ft | 214 kts | 198° |
| 2026-05-07 08:35 | -26.08769 | 28.27205 | 6642 ft | 190 kts | 198° |
| 2026-05-07 08:35 | -26.09202 | 28.27071 | 6538 ft | 178 kts | 198° |
| 2026-05-07 08:36 | -26.10303 | 28.26730 | 6256 ft | 152 kts | 198° |
| 2026-05-07 08:36 | -26.11260 | 28.26432 | 6017 ft | 136 kts | 198° |
| 2026-05-07 08:36 | -26.12158 | 28.26153 | 5836 ft | 136 kts | 198° |
| 2026-05-07 08:36 | -26.13052 | 28.25875 | 5624 ft | 132 kts | 199° |
| 2026-05-07 08:37 | -26.13917 | 28.25625 | 5509 ft | 126 kts | 199° |
| 2026-05-07 08:37 | -26.14593 | 28.25350 | 5508 ft | 92 kts | 205° |